Terminal Aerodrome Forecast
Issued by NWS

Current Version | Previous Version | Graphics & Text | Print | Product List | Glossary On
Versions: 1 2 3 4 5 6 7 8 9 10 11 12 13 14 15 16 17 18 19 20 21 22 23 24 25 26 27
081
FTUS41 KILN 280533
TAFLUK
TAF
KLUK 280533Z 2806/2906 00000KT P6SM BKN130
     FM280800 00000KT 3SM BR SCT025
      TEMPO 2809/2813 1SM BR
     FM281300 02003KT P6SM SCT120 BKN250
     FM281600 02004KT P6SM SCT040 BKN250
     FM290000 VRB03KT P6SM SCT130=

USA.gov is the U.S. government's official web portal to all federal, state and local government web resources and services.